sensor_id;sensor_type;location;lat;lon;timestamp;temperature;humidity
16907;DHT22;8570;52.380;4.654;2023-03-19T00:01:13;11.30;99.90
16907;DHT22;8570;52.380;4.654;2023-03-19T00:06:15;11.20;99.90
16907;DHT22;8570;52.380;4.654;2023-03-19T00:11:18;11.20;99.90
16907;DHT22;8570;52.380;4.654;2023-03-19T00:16:20;11.20;99.90
16907;DHT22;8570;52.380;4.654;2023-03-19T00:21:22;11.20;99.90
16907;DHT22;8570;52.380;4.654;2023-03-19T00:26:26;11.20;99.90
16907;DHT22;8570;52.380;4.654;2023-03-19T00:31:28;11.20;99.90
16907;DHT22;8570;52.380;4.654;2023-03-19T00:36:30;11.20;99.90
16907;DHT22;8570;52.380;4.654;2023-03-19T00:41:34;11.20;99.90
16907;DHT22;8570;52.380;4.654;2023-03-19T00:46:36;11.20;99.90
16907;DHT22;8570;52.380;4.654;2023-03-19T00:51:38;11.20;99.90
16907;DHT22;8570;52.380;4.654;2023-03-19T00:56:44;11.30;99.90
16907;DHT22;8570;52.380;4.654;2023-03-19T01:01:46;11.20;99.90
16907;DHT22;8570;52.380;4.654;2023-03-19T01:06:48;11.30;99.90
16907;DHT22;8570;52.380;4.654;2023-03-19T01:11:52;11.30;99.90
16907;DHT22;8570;52.380;4.654;2023-03-19T01:16:54;11.30;99.90
16907;DHT22;8570;52.380;4.654;2023-03-19T01:21:56;11.20;99.90
16907;DHT22;8570;52.380;4.654;2023-03-19T01:26:59;11.20;99.90
16907;DHT22;8570;52.380;4.654;2023-03-19T01:32:01;11.10;99.90
16907;DHT22;8570;52.380;4.654;2023-03-19T01:37:03;11.00;99.90
16907;DHT22;8570;52.380;4.654;2023-03-19T01:42:07;11.00;99.90
16907;DHT22;8570;52.380;4.654;2023-03-19T01:47:14;10.90;99.90
16907;DHT22;8570;52.380;4.654;2023-03-19T01:52:17;10.80;99.90
16907;DHT22;8570;52.380;4.654;2023-03-19T01:57:22;10.80;99.90
16907;DHT22;8570;52.380;4.654;2023-03-19T02:07:29;10.70;99.90
16907;DHT22;8570;52.380;4.654;2023-03-19T02:12:34;10.60;99.90
16907;DHT22;8570;52.380;4.654;2023-03-19T02:17:36;10.50;99.90
16907;DHT22;8570;52.380;4.654;2023-03-19T02:22:42;10.40;99.90
16907;DHT22;8570;52.380;4.654;2023-03-19T02:27:46;10.40;99.90
16907;DHT22;8570;52.380;4.654;2023-03-19T02:32:48;10.30;99.90
16907;DHT22;8570;52.380;4.654;2023-03-19T02:37:50;10.20;99.90
16907;DHT22;8570;52.380;4.654;2023-03-19T02:42:55;10.10;99.90
16907;DHT22;8570;52.380;4.654;2023-03-19T02:47:57;10.00;99.90
16907;DHT22;8570;52.380;4.654;2023-03-19T02:53:00;10.00;99.90
16907;DHT22;8570;52.380;4.654;2023-03-19T02:58:06;9.90;99.90
16907;DHT22;8570;52.380;4.654;2023-03-19T03:03:08;9.80;99.90
16907;DHT22;8570;52.380;4.654;2023-03-19T03:08:10;9.80;99.90
16907;DHT22;8570;52.380;4.654;2023-03-19T03:13:13;9.70;99.90
16907;DHT22;8570;52.380;4.654;2023-03-19T03:18:15;9.60;99.90
16907;DHT22;8570;52.380;4.654;2023-03-19T03:23:19;9.60;99.90
16907;DHT22;8570;52.380;4.654;2023-03-19T03:28:22;9.60;99.90
16907;DHT22;8570;52.380;4.654;2023-03-19T03:33:25;9.60;99.90
16907;DHT22;8570;52.380;4.654;2023-03-19T03:38:27;9.50;99.90
16907;DHT22;8570;52.380;4.654;2023-03-19T03:43:30;9.50;99.90
16907;DHT22;8570;52.380;4.654;2023-03-19T03:48:33;9.50;99.90
16907;DHT22;8570;52.380;4.654;2023-03-19T03:53:35;9.50;99.90
16907;DHT22;8570;52.380;4.654;2023-03-19T03:58:39;9.50;99.90
16907;DHT22;8570;52.380;4.654;2023-03-19T04:03:41;9.50;99.90
16907;DHT22;8570;52.380;4.654;2023-03-19T04:08:44;9.40;99.90
16907;DHT22;8570;52.380;4.654;2023-03-19T04:13:47;9.30;99.90
16907;DHT22;8570;52.380;4.654;2023-03-19T04:23:52;9.20;99.90
16907;DHT22;8570;52.380;4.654;2023-03-19T04:28:56;9.20;99.90
16907;DHT22;8570;52.380;4.654;2023-03-19T04:33:58;9.10;99.90
16907;DHT22;8570;52.380;4.654;2023-03-19T04:39:00;9.20;99.90
16907;DHT22;8570;52.380;4.654;2023-03-19T04:44:04;9.20;99.90
16907;DHT22;8570;52.380;4.654;2023-03-19T04:49:05;9.20;99.90
16907;DHT22;8570;52.380;4.654;2023-03-19T04:54:07;9.20;99.90
16907;DHT22;8570;52.380;4.654;2023-03-19T04:59:11;9.30;99.90
16907;DHT22;8570;52.380;4.654;2023-03-19T05:04:14;9.30;99.90
16907;DHT22;8570;52.380;4.654;2023-03-19T05:09:16;9.20;99.90
16907;DHT22;8570;52.380;4.654;2023-03-19T05:14:19;9.20;99.90
16907;DHT22;8570;52.380;4.654;2023-03-19T05:19:21;9.20;99.90
16907;DHT22;8570;52.380;4.654;2023-03-19T05:24:23;9.20;99.90
16907;DHT22;8570;52.380;4.654;2023-03-19T05:29:26;9.20;99.90
16907;DHT22;8570;52.380;4.654;2023-03-19T05:34:28;9.10;99.90
16907;DHT22;8570;52.380;4.654;2023-03-19T05:39:30;9.00;99.90
16907;DHT22;8570;52.380;4.654;2023-03-19T05:44:34;8.90;99.90
16907;DHT22;8570;52.380;4.654;2023-03-19T05:49:36;8.80;99.90
16907;DHT22;8570;52.380;4.654;2023-03-19T05:54:38;8.70;99.90
16907;DHT22;8570;52.380;4.654;2023-03-19T05:59:42;8.70;99.90
16907;DHT22;8570;52.380;4.654;2023-03-19T06:04:44;8.60;99.90
16907;DHT22;8570;52.380;4.654;2023-03-19T06:09:46;8.60;99.90
16907;DHT22;8570;52.380;4.654;2023-03-19T06:14:50;8.50;99.90
16907;DHT22;8570;52.380;4.654;2023-03-19T06:19:52;8.50;99.90
16907;DHT22;8570;52.380;4.654;2023-03-19T06:24:54;8.50;99.90
16907;DHT22;8570;52.380;4.654;2023-03-19T06:29:57;8.50;99.90
16907;DHT22;8570;52.380;4.654;2023-03-19T06:34:59;8.60;99.90
16907;DHT22;8570;52.380;4.654;2023-03-19T06:40:01;8.60;99.90
16907;DHT22;8570;52.380;4.654;2023-03-19T06:45:07;8.60;99.90
16907;DHT22;8570;52.380;4.654;2023-03-19T06:50:10;8.70;99.90
16907;DHT22;8570;52.380;4.654;2023-03-19T06:55:12;8.70;99.90
16907;DHT22;8570;52.380;4.654;2023-03-19T07:00:17;8.70;99.90
16907;DHT22;8570;52.380;4.654;2023-03-19T07:05:20;8.70;99.90
16907;DHT22;8570;52.380;4.654;2023-03-19T07:10:22;8.70;99.90
16907;DHT22;8570;52.380;4.654;2023-03-19T07:15:26;8.70;99.90
16907;DHT22;8570;52.380;4.654;2023-03-19T07:20:27;8.70;99.90
16907;DHT22;8570;52.380;4.654;2023-03-19T07:25:29;8.80;99.90
16907;DHT22;8570;52.380;4.654;2023-03-19T07:30:33;8.80;99.90
16907;DHT22;8570;52.380;4.654;2023-03-19T07:35:35;8.80;99.90
16907;DHT22;8570;52.380;4.654;2023-03-19T07:40:37;8.80;99.90
16907;DHT22;8570;52.380;4.654;2023-03-19T07:45:40;8.90;99.90
16907;DHT22;8570;52.380;4.654;2023-03-19T07:50:42;8.90;99.90
16907;DHT22;8570;52.380;4.654;2023-03-19T07:55:44;8.90;99.90
16907;DHT22;8570;52.380;4.654;2023-03-19T08:00:47;9.00;99.90
16907;DHT22;8570;52.380;4.654;2023-03-19T08:05:50;9.00;99.90
16907;DHT22;8570;52.380;4.654;2023-03-19T08:10:53;9.10;99.90
16907;DHT22;8570;52.380;4.654;2023-03-19T08:15:59;9.10;99.90
16907;DHT22;8570;52.380;4.654;2023-03-19T08:21:01;9.10;99.90
16907;DHT22;8570;52.380;4.654;2023-03-19T08:26:03;9.20;99.90
16907;DHT22;8570;52.380;4.654;2023-03-19T08:31:08;9.30;99.90
16907;DHT22;8570;52.380;4.654;2023-03-19T08:36:12;9.30;99.90
16907;DHT22;8570;52.380;4.654;2023-03-19T08:41:14;9.40;99.90
16907;DHT22;8570;52.380;4.654;2023-03-19T08:46:17;9.40;99.90
16907;DHT22;8570;52.380;4.654;2023-03-19T08:51:20;9.40;99.90
16907;DHT22;8570;52.380;4.654;2023-03-19T08:56:24;9.40;99.90
16907;DHT22;8570;52.380;4.654;2023-03-19T09:01:27;9.50;99.90
16907;DHT22;8570;52.380;4.654;2023-03-19T09:06:29;9.50;99.90
16907;DHT22;8570;52.380;4.654;2023-03-19T09:11:31;9.60;99.90
16907;DHT22;8570;52.380;4.654;2023-03-19T09:16:35;9.60;99.90
16907;DHT22;8570;52.380;4.654;2023-03-19T09:21:37;9.70;99.90
16907;DHT22;8570;52.380;4.654;2023-03-19T09:26:39;9.70;99.90
16907;DHT22;8570;52.380;4.654;2023-03-19T09:31:42;9.80;99.90
16907;DHT22;8570;52.380;4.654;2023-03-19T09:36:44;9.80;99.90
16907;DHT22;8570;52.380;4.654;2023-03-19T09:41:56;9.80;99.90
16907;DHT22;8570;52.380;4.654;2023-03-19T09:47:13;9.90;99.90
16907;DHT22;8570;52.380;4.654;2023-03-19T09:52:29;9.90;99.90
16907;DHT22;8570;52.380;4.654;2023-03-19T09:57:33;9.90;99.90
16907;DHT22;8570;52.380;4.654;2023-03-19T10:02:41;10.00;99.90
16907;DHT22;8570;52.380;4.654;2023-03-19T10:08:05;10.00;99.90
16907;DHT22;8570;52.380;4.654;2023-03-19T10:13:16;10.10;99.90
16907;DHT22;8570;52.380;4.654;2023-03-19T10:18:28;10.20;99.90
16907;DHT22;8570;52.380;4.654;2023-03-19T10:23:43;10.20;99.90
16907;DHT22;8570;52.380;4.654;2023-03-19T10:28:56;10.30;99.90
16907;DHT22;8570;52.380;4.654;2023-03-19T10:34:13;10.30;99.90
16907;DHT22;8570;52.380;4.654;2023-03-19T10:39:20;10.30;99.90
16907;DHT22;8570;52.380;4.654;2023-03-19T10:44:27;10.30;99.90
16907;DHT22;8570;52.380;4.654;2023-03-19T10:49:34;10.40;99.90
16907;DHT22;8570;52.380;4.654;2023-03-19T10:54:39;10.40;99.90
16907;DHT22;8570;52.380;4.654;2023-03-19T10:59:45;10.50;99.90
16907;DHT22;8570;52.380;4.654;2023-03-19T11:05:04;10.50;99.90
16907;DHT22;8570;52.380;4.654;2023-03-19T11:10:12;10.60;99.90
16907;DHT22;8570;52.380;4.654;2023-03-19T11:15:19;10.60;99.90
16907;DHT22;8570;52.380;4.654;2023-03-19T11:20:29;10.70;99.90
16907;DHT22;8570;52.380;4.654;2023-03-19T11:25:35;10.80;99.90
16907;DHT22;8570;52.380;4.654;2023-03-19T11:30:46;10.90;99.90
16907;DHT22;8570;52.380;4.654;2023-03-19T11:36:02;10.90;99.90
16907;DHT22;8570;52.380;4.654;2023-03-19T11:41:13;10.80;99.90
16907;DHT22;8570;52.380;4.654;2023-03-19T11:46:36;10.80;99.90
16907;DHT22;8570;52.380;4.654;2023-03-19T11:51:45;10.80;99.90
16907;DHT22;8570;52.380;4.654;2023-03-19T11:56:55;10.80;99.90
16907;DHT22;8570;52.380;4.654;2023-03-19T12:07:38;10.90;99.90
16907;DHT22;8570;52.380;4.654;2023-03-19T12:12:47;10.90;99.90
16907;DHT22;8570;52.380;4.654;2023-03-19T12:18:00;11.00;99.90
16907;DHT22;8570;52.380;4.654;2023-03-19T12:23:14;10.90;99.90
16907;DHT22;8570;52.380;4.654;2023-03-19T12:28:22;10.90;99.90
16907;DHT22;8570;52.380;4.654;2023-03-19T12:33:42;10.90;99.90
16907;DHT22;8570;52.380;4.654;2023-03-19T12:38:50;11.00;99.90
16907;DHT22;8570;52.380;4.654;2023-03-19T12:44:01;10.90;99.90
16907;DHT22;8570;52.380;4.654;2023-03-19T12:49:12;10.90;99.90
16907;DHT22;8570;52.380;4.654;2023-03-19T12:54:22;10.90;99.90
16907;DHT22;8570;52.380;4.654;2023-03-19T12:59:31;10.90;99.90
16907;DHT22;8570;52.380;4.654;2023-03-19T13:04:45;10.90;99.90
16907;DHT22;8570;52.380;4.654;2023-03-19T13:09:57;10.80;99.90
16907;DHT22;8570;52.380;4.654;2023-03-19T13:15:05;10.80;99.90
16907;DHT22;8570;52.380;4.654;2023-03-19T13:20:16;10.80;99.90
16907;DHT22;8570;52.380;4.654;2023-03-19T13:25:24;10.80;99.90
16907;DHT22;8570;52.380;4.654;2023-03-19T13:30:28;10.70;99.90
16907;DHT22;8570;52.380;4.654;2023-03-19T13:35:36;10.70;99.90
16907;DHT22;8570;52.380;4.654;2023-03-19T13:40:46;10.80;99.90
16907;DHT22;8570;52.380;4.654;2023-03-19T13:45:51;10.80;99.90
16907;DHT22;8570;52.380;4.654;2023-03-19T13:50:55;10.80;99.90
16907;DHT22;8570;52.380;4.654;2023-03-19T13:56:03;10.80;99.90
16907;DHT22;8570;52.380;4.654;2023-03-19T14:01:06;10.90;99.90
16907;DHT22;8570;52.380;4.654;2023-03-19T14:06:31;11.00;99.90
16907;DHT22;8570;52.380;4.654;2023-03-19T14:11:36;11.00;99.90
16907;DHT22;8570;52.380;4.654;2023-03-19T14:16:41;11.00;99.90
16907;DHT22;8570;52.380;4.654;2023-03-19T14:22:05;11.00;99.90
16907;DHT22;8570;52.380;4.654;2023-03-19T14:27:19;11.10;99.90
16907;DHT22;8570;52.380;4.654;2023-03-19T14:32:27;11.00;99.90
16907;DHT22;8570;52.380;4.654;2023-03-19T14:37:41;11.00;99.90
16907;DHT22;8570;52.380;4.654;2023-03-19T14:42:57;10.90;99.90
16907;DHT22;8570;52.380;4.654;2023-03-19T14:48:13;10.80;99.90
16907;DHT22;8570;52.380;4.654;2023-03-19T14:53:19;10.80;99.90
16907;DHT22;8570;52.380;4.654;2023-03-19T14:58:24;10.80;99.90
16907;DHT22;8570;52.380;4.654;2023-03-19T15:03:30;10.80;99.90
16907;DHT22;8570;52.380;4.654;2023-03-19T15:08:35;10.80;99.90
16907;DHT22;8570;52.380;4.654;2023-03-19T15:13:52;10.70;99.90
16907;DHT22;8570;52.380;4.654;2023-03-19T15:18:59;10.60;99.90
16907;DHT22;8570;52.380;4.654;2023-03-19T15:24:02;10.60;99.90
16907;DHT22;8570;52.380;4.654;2023-03-19T15:29:08;10.50;99.90
16907;DHT22;8570;52.380;4.654;2023-03-19T15:34:21;10.50;99.90
16907;DHT22;8570;52.380;4.654;2023-03-19T15:39:25;10.50;99.90
16907;DHT22;8570;52.380;4.654;2023-03-19T15:44:32;10.50;99.90
16907;DHT22;8570;52.380;4.654;2023-03-19T15:49:38;10.50;99.90
16907;DHT22;8570;52.380;4.654;2023-03-19T15:54:41;10.50;99.90
16907;DHT22;8570;52.380;4.654;2023-03-19T15:59:45;10.60;99.90
16907;DHT22;8570;52.380;4.654;2023-03-19T16:04:47;10.60;99.90
16907;DHT22;8570;52.380;4.654;2023-03-19T16:09:49;10.60;99.90
16907;DHT22;8570;52.380;4.654;2023-03-19T16:14:53;10.60;99.90
16907;DHT22;8570;52.380;4.654;2023-03-19T16:20:00;10.60;99.90
16907;DHT22;8570;52.380;4.654;2023-03-19T16:25:03;10.60;99.90
16907;DHT22;8570;52.380;4.654;2023-03-19T16:30:20;10.60;99.90
16907;DHT22;8570;52.380;4.654;2023-03-19T16:35:22;10.60;99.90
16907;DHT22;8570;52.380;4.654;2023-03-19T16:40:42;10.50;99.90
16907;DHT22;8570;52.380;4.654;2023-03-19T16:45:49;10.40;99.90
16907;DHT22;8570;52.380;4.654;2023-03-19T16:50:51;10.30;99.90
16907;DHT22;8570;52.380;4.654;2023-03-19T16:55:55;10.20;99.90
16907;DHT22;8570;52.380;4.654;2023-03-19T17:00:59;10.10;99.90
16907;DHT22;8570;52.380;4.654;2023-03-19T17:06:01;10.10;99.90
16907;DHT22;8570;52.380;4.654;2023-03-19T17:11:05;10.00;99.90
16907;DHT22;8570;52.380;4.654;2023-03-19T17:16:12;10.00;99.90
16907;DHT22;8570;52.380;4.654;2023-03-19T17:21:17;9.90;99.90
16907;DHT22;8570;52.380;4.654;2023-03-19T17:26:22;9.70;99.90
16907;DHT22;8570;52.380;4.654;2023-03-19T17:31:28;9.60;99.90
16907;DHT22;8570;52.380;4.654;2023-03-19T17:36:31;9.50;99.90
16907;DHT22;8570;52.380;4.654;2023-03-19T17:41:33;9.40;99.90
16907;DHT22;8570;52.380;4.654;2023-03-19T17:46:38;9.30;99.90
16907;DHT22;8570;52.380;4.654;2023-03-19T17:51:46;9.30;99.90
16907;DHT22;8570;52.380;4.654;2023-03-19T17:56:51;9.30;99.90
16907;DHT22;8570;52.380;4.654;2023-03-19T18:01:54;9.30;99.90
16907;DHT22;8570;52.380;4.654;2023-03-19T18:07:01;9.20;99.90
16907;DHT22;8570;52.380;4.654;2023-03-19T18:12:08;9.20;99.90
16907;DHT22;8570;52.380;4.654;2023-03-19T18:17:14;9.20;99.90
16907;DHT22;8570;52.380;4.654;2023-03-19T18:22:17;9.20;99.90
16907;DHT22;8570;52.380;4.654;2023-03-19T18:27:20;9.10;99.90
16907;DHT22;8570;52.380;4.654;2023-03-19T18:32:29;9.10;99.90
16907;DHT22;8570;52.380;4.654;2023-03-19T18:37:33;9.00;99.90
16907;DHT22;8570;52.380;4.654;2023-03-19T18:42:35;8.90;99.90
16907;DHT22;8570;52.380;4.654;2023-03-19T18:47:39;8.90;99.90
16907;DHT22;8570;52.380;4.654;2023-03-19T18:52:41;8.90;99.90
16907;DHT22;8570;52.380;4.654;2023-03-19T18:57:46;8.90;99.90
16907;DHT22;8570;52.380;4.654;2023-03-19T19:02:51;8.90;99.90
16907;DHT22;8570;52.380;4.654;2023-03-19T19:07:54;8.90;99.90
16907;DHT22;8570;52.380;4.654;2023-03-19T19:12:56;8.80;99.90
16907;DHT22;8570;52.380;4.654;2023-03-19T19:18:01;8.90;99.90
16907;DHT22;8570;52.380;4.654;2023-03-19T19:23:06;8.80;99.90
16907;DHT22;8570;52.380;4.654;2023-03-19T19:28:14;8.90;99.90
16907;DHT22;8570;52.380;4.654;2023-03-19T19:33:22;8.80;99.90
16907;DHT22;8570;52.380;4.654;2023-03-19T19:38:24;8.80;99.90
16907;DHT22;8570;52.380;4.654;2023-03-19T19:43:28;8.80;99.90
16907;DHT22;8570;52.380;4.654;2023-03-19T19:48:32;8.70;99.90
16907;DHT22;8570;52.380;4.654;2023-03-19T19:53:34;8.70;99.90
16907;DHT22;8570;52.380;4.654;2023-03-19T19:58:36;8.70;99.90
16907;DHT22;8570;52.380;4.654;2023-03-19T20:03:39;8.60;99.90
16907;DHT22;8570;52.380;4.654;2023-03-19T20:08:41;8.60;99.90
16907;DHT22;8570;52.380;4.654;2023-03-19T20:13:44;8.60;99.90
16907;DHT22;8570;52.380;4.654;2023-03-19T20:18:50;8.60;99.90
16907;DHT22;8570;52.380;4.654;2023-03-19T20:23:54;8.50;99.90
16907;DHT22;8570;52.380;4.654;2023-03-19T20:28:58;8.50;99.90
16907;DHT22;8570;52.380;4.654;2023-03-19T20:34:01;8.50;99.90
16907;DHT22;8570;52.380;4.654;2023-03-19T20:39:03;8.50;99.90
16907;DHT22;8570;52.380;4.654;2023-03-19T20:44:05;8.50;99.90
16907;DHT22;8570;52.380;4.654;2023-03-19T20:49:11;8.50;99.90
16907;DHT22;8570;52.380;4.654;2023-03-19T20:54:14;8.40;99.90
16907;DHT22;8570;52.380;4.654;2023-03-19T20:59:16;8.40;99.90
16907;DHT22;8570;52.380;4.654;2023-03-19T21:04:20;8.40;99.90
16907;DHT22;8570;52.380;4.654;2023-03-19T21:09:23;8.40;99.90
16907;DHT22;8570;52.380;4.654;2023-03-19T21:14:25;8.40;99.90
16907;DHT22;8570;52.380;4.654;2023-03-19T21:19:29;8.40;99.90
16907;DHT22;8570;52.380;4.654;2023-03-19T21:24:31;8.40;99.90
16907;DHT22;8570;52.380;4.654;2023-03-19T21:29:32;8.40;99.90
16907;DHT22;8570;52.380;4.654;2023-03-19T21:34:36;8.40;99.90
16907;DHT22;8570;52.380;4.654;2023-03-19T21:39:38;8.40;99.90
16907;DHT22;8570;52.380;4.654;2023-03-19T21:44:42;8.40;99.90
16907;DHT22;8570;52.380;4.654;2023-03-19T21:49:46;8.40;99.90
16907;DHT22;8570;52.380;4.654;2023-03-19T21:54:49;8.40;99.90
16907;DHT22;8570;52.380;4.654;2023-03-19T21:59:51;8.40;99.90
16907;DHT22;8570;52.380;4.654;2023-03-19T22:04:55;8.40;99.90
16907;DHT22;8570;52.380;4.654;2023-03-19T22:09:57;8.40;99.90
16907;DHT22;8570;52.380;4.654;2023-03-19T22:14:59;8.40;99.90
16907;DHT22;8570;52.380;4.654;2023-03-19T22:20:04;8.40;99.90
16907;DHT22;8570;52.380;4.654;2023-03-19T22:25:07;8.30;99.90
16907;DHT22;8570;52.380;4.654;2023-03-19T22:30:21;8.40;99.90
16907;DHT22;8570;52.380;4.654;2023-03-19T22:35:24;8.40;99.90
16907;DHT22;8570;52.380;4.654;2023-03-19T22:40:26;8.40;99.90
16907;DHT22;8570;52.380;4.654;2023-03-19T22:45:30;8.30;99.90
16907;DHT22;8570;52.380;4.654;2023-03-19T22:50:34;8.40;99.90
16907;DHT22;8570;52.380;4.654;2023-03-19T22:55:36;8.40;99.90
16907;DHT22;8570;52.380;4.654;2023-03-19T23:00:38;8.30;99.90
16907;DHT22;8570;52.380;4.654;2023-03-19T23:05:43;8.40;99.90
16907;DHT22;8570;52.380;4.654;2023-03-19T23:10:46;8.40;99.90
16907;DHT22;8570;52.380;4.654;2023-03-19T23:15:51;8.40;99.90
16907;DHT22;8570;52.380;4.654;2023-03-19T23:20:58;8.40;99.90
16907;DHT22;8570;52.380;4.654;2023-03-19T23:26:00;8.40;99.90
16907;DHT22;8570;52.380;4.654;2023-03-19T23:31:02;8.40;99.90
16907;DHT22;8570;52.380;4.654;2023-03-19T23:36:08;8.40;99.90
16907;DHT22;8570;52.380;4.654;2023-03-19T23:41:18;8.40;99.90
16907;DHT22;8570;52.380;4.654;2023-03-19T23:46:21;8.40;99.90
16907;DHT22;8570;52.380;4.654;2023-03-19T23:51:24;8.40;99.90
16907;DHT22;8570;52.380;4.654;2023-03-19T23:56:26;8.40;99.90
